Accueil
METAR-TAF:

METAR-TAF

Aéroports :

Winnsboro, Caroline du Sud, États-Unis

latitude: 34-18-56N, longitude: 081-06-32W, altitude: 176 m

Observation

Le bulletin a été fait il y a 20 minutes, à 16:55 UTC
Vent 9 kt de nord-est avec des rafales jusqu'à 15 kt
Température 10°C
Humidité 93%
Pression 1026 hPa
Visibilité: 8.0 km
Nuages fragmentés à une hauteur de 900 ft
Nuages fragmentés à une hauteur de 1400 ft
Ciel couvert à une hauteur de 2700 ft
brume

METAR: KFDW 191655Z AUTO 04009G15KT 5SM BR BKN009 BKN014 OVC027 10/09 A3030 RMK AO1

Heure: 12:15 (17:15 UTC)


TAF: absent

Observations et prévisions météorologiques de plus de 4000 aéroports (messages METAR et TAF).

Les stations disponibles sont représentées par des disques jaunes et rouges sur la carte.

Passer la souris dessus pour voir le nom de la station.

Cliquer dessus pour voir les observations et prévisions météorologiques.

Pour changer de carte: cliquez sur les boutons verts avec une croix noire pour zoomer, sur le bouton vert avec un tiret pour effectuer un zoom arrière, ou sur les flèches vertes pour les cartes adjacentes.


METAR-TAF: